New Glarus, WI (53574)

12:22 CDT le 25 septembre 2016 (GMT -0500)
Swisstown | | Change Station

Alt. 875 ft 42.82 °N, 89.64 °W | Updated 2 seconds ago

Overcast
Couvert
77.9 ° F
Paraît 80 ° F
N
4.7
Vent Variable Vent de Sud
Gusts 12.9 mph

Aujourd'hui
Haut(e) -- | Bas -- ° F
--% Risque de précip.
Hier
Haut(e) -- | Bas -- ° F
Precip. -- pouce
Pression 29.98 pouce
Visibilité 10.0 Miles terrestres
Nuages Nuageux 3000 ft
Nuageux 3600 ft
Couvert 8000 ft
indice de chaleur 80 ° F
Point de rosée 72 ° F
Humidité 83%
Précipitations 0.00 pouce
Profondeur de la couche neigeuse Non disponible.
6:49 AM 6:49 PM
Lune descendante, 26% visible
METAR KEFT 251715Z AUTO 22008KT 10SM BKN030 BKN036 OVC080 25/21 A2998 RMK AO2
Pression 29.98 pouce
Visibilité 10.0 Miles terrestres
Nuages Nuageux 3000 ft
Nuageux 3600 ft
Couvert 8000 ft
indice de chaleur 80 ° F
Point de rosée 72 ° F
Humidité 83%
Précipitations 0.00 pouce
Profondeur de la couche neigeuse Non disponible.
6:49 AM 6:49 PM
Lune descendante, 26% visible
METAR KEFT 251715Z AUTO 22008KT 10SM BKN030 BKN036 OVC080 25/21 A2998 RMK AO2

10-Day Weather Forecast

Almanac

Astronomie

Sep. 25, 2016 Lever Coucher
Temps réel
Crépuscule civil
Crépuscule nautique
Crépuscule astronomique
Lune
Durée de lumière visible
Longueur du jour
Tomorrow will be .
, % of the Moon is Illuminated

Extrêmes aujourd'hui

State Highs State Lows

Community

WunderPhotos

Upload Photos

1,941,670 Photos téléchargées !

WunderBlog® & News

Nearby

Qualité de l'air

  Qualité de l'air Indice de la qualité de l'air Polluant
Not available.

Épaisseur de neige

Station Depth Altitude

Activité sismique

Ville Distance Mag. Time & Date
Minimum magnitude displayed is 2.5.

Températures des eaux côtières

Lieu Température

Stations

Stations météo à proximité

Emplacement de la station Température Refroidissement éolien Point de rosée Humidité Vent Precip. Alt. Mise à jour Type
                   

Watches & Warnings

There are currently no watches in effect.